Time;durP1;ratioP1;P1;durP2;ratioP2;P2;SDS_P1;SDS_P2;PMS_P1;PMS_P2;Temp;Humidity;BMP_temperature;BMP_pressure;BME280_temperature;BME280_humidity;BME280_pressure;Samples;Min_cycle;Max_cycle;Signal;HPM_P1;HPM_P2
2021/03/24 00:00:49;;;;;;;26.17;4.83;;;11.60;99.90;;;;;;5044239;28;21177;-69
2021/03/24 00:03:17;;;;;;;20.87;4.87;;;11.70;99.90;;;;;;5027505;28;20814;-69
2021/03/24 00:05:50;;;;;;;13.17;4.93;;;11.80;99.90;;;;;;5045412;28;20214;-70
2021/03/24 00:08:22;;;;;;;20.27;4.40;;;11.80;99.90;;;;;;5044643;28;20196;-69
2021/03/24 00:10:51;;;;;;;28.67;4.57;;;11.70;99.90;;;;;;5044971;28;20195;-69
2021/03/24 00:13:18;;;;;;;20.33;4.53;;;11.80;99.90;;;;;;5044880;28;20192;-69
2021/03/24 00:15:45;;;;;;;28.13;5.07;;;11.80;99.90;;;;;;5026657;28;20822;-68
2021/03/24 00:18:12;;;;;;;17.63;4.17;;;11.80;99.90;;;;;;5044719;28;20270;-69
2021/03/24 00:20:43;;;;;;;17.17;4.23;;;11.70;99.90;;;;;;5023599;28;20192;-69
2021/03/24 00:23:10;;;;;;;15.73;3.80;;;11.70;99.90;;;;;;5030783;28;20216;-70
2021/03/24 00:25:37;;;;;;;17.33;4.20;;;11.70;99.90;;;;;;5045081;28;20211;-68
2021/03/24 00:28:04;;;;;;;17.90;4.13;;;11.70;99.90;;;;;;5039848;28;20267;-67
2021/03/24 00:30:37;;;;;;;17.00;4.20;;;11.60;99.90;;;;;;5043328;28;20175;-68
2021/03/24 00:34:12;;;;;;;12.70;3.73;;;11.50;99.90;;;;;;5024991;28;20179;-67
2021/03/24 00:40:27;;;;;;;22.43;3.17;;;11.60;99.90;;;;;;5037932;28;20183;-69
2021/03/24 00:43:12;;;;;;;16.67;3.20;;;11.70;99.90;;;;;;5038591;28;20552;-68
2021/03/24 00:46:38;;;;;;;16.70;3.73;;;11.70;99.90;;;;;;5032657;28;20761;-68
2021/03/24 00:49:04;;;;;;;16.57;3.27;;;11.70;99.90;;;;;;5033282;28;20209;-67
2021/03/24 00:51:33;;;;;;;22.33;4.27;;;11.80;99.90;;;;;;5043708;28;20198;-68
2021/03/24 00:54:37;;;;;;;15.07;3.90;;;11.70;99.90;;;;;;5028301;28;20631;-69
2021/03/24 01:00:50;;;;;;;19.83;3.73;;;10.40;99.90;;;;;;5026489;28;20183;-68
2021/03/24 01:06:58;;;;;;;18.83;4.00;;;10.10;99.90;;;;;;5036490;28;20183;-69
2021/03/24 01:09:49;;;;;;;15.93;3.47;;;10.30;99.90;;;;;;5029433;28;20188;-69
2021/03/24 01:13:08;;;;;;;16.93;3.73;;;10.40;99.90;;;;;;5033716;28;20191;-69
2021/03/24 01:16:37;;;;;;;20.33;3.60;;;10.40;99.90;;;;;;5036143;28;20241;-70
2021/03/24 01:37:28;;;;;;;18.67;3.10;;;10.60;99.90;;;;;;5038306;28;20301;-69
2021/03/24 01:44:19;;;;;;;12.83;2.23;;;10.40;99.90;;;;;;5031569;28;20211;-68
2021/03/24 01:47:48;;;;;;;11.27;2.50;;;10.30;99.90;;;;;;5035460;28;20197;-69
2021/03/24 02:20:09;;;;;;;17.50;2.63;;;10.50;99.90;;;;;;5038210;28;20191;-69
2021/03/24 02:23:00;;;;;;;17.37;2.77;;;10.40;99.90;;;;;;5038149;28;20890;-68
2021/03/24 02:25:52;;;;;;;13.53;2.57;;;10.40;99.90;;;;;;5046514;28;20245;-69
2021/03/24 02:29:43;;;;;;;13.93;2.10;;;10.30;99.90;;;;;;5050941;28;20211;-68
2021/03/24 02:32:22;;;;;;;8.33;2.47;;;10.20;99.90;;;;;;5042113;28;21000;-68
2021/03/24 02:34:52;;;;;;;22.53;2.70;;;10.10;99.90;;;;;;5033131;28;20179;-69
2021/03/24 02:41:03;;;;;;;14.27;2.30;;;10.20;99.90;;;;;;5046120;28;20180;-69
2021/03/24 02:43:51;;;;;;;10.43;2.53;;;10.20;99.90;;;;;;5043512;28;20229;-70
2021/03/24 03:16:14;;;;;;;7.60;1.57;;;10.10;99.90;;;;;;5038482;28;20172;-68
2021/03/24 03:40:48;;;;;;;13.50;2.77;;;9.70;99.90;;;;;;5054725;28;20184;-70
2021/03/24 03:43:26;;;;;;;12.47;2.90;;;9.70;99.90;;;;;;5045303;28;20187;-69
2021/03/24 03:46:00;;;;;;;16.37;2.33;;;9.30;99.90;;;;;;5026401;28;20588;-68
2021/03/24 03:49:28;;;;;;;16.57;2.67;;;9.20;99.90;;;;;;5038806;28;20229;-69
2021/03/24 03:52:20;;;;;;;14.07;2.37;;;9.30;99.90;;;;;;5047134;28;20219;-69
2021/03/24 03:58:47;;;;;;;16.77;2.40;;;9.60;99.90;;;;;;5031097;28;20198;-70
2021/03/24 04:01:24;;;;;;;14.13;2.33;;;9.70;99.90;;;;;;5042156;28;20875;-68
2021/03/24 04:04:18;;;;;;;26.63;3.07;;;9.70;99.90;;;;;;5046434;28;20571;-69
2021/03/24 04:15:22;;;;;;;16.57;2.43;;;10.00;99.90;;;;;;5043385;28;20257;-70
2021/03/24 04:17:59;;;;;;;13.87;2.23;;;9.90;99.90;;;;;;5038957;28;20638;-69
2021/03/24 04:24:56;;;;;;;11.23;1.77;;;9.60;99.90;;;;;;5039861;28;20317;-69
2021/03/24 04:27:32;;;;;;;19.33;1.80;;;9.30;99.90;;;;;;5039482;28;20246;-69
2021/03/24 04:30:07;;;;;;;15.60;2.27;;;9.40;99.90;;;;;;5047472;28;20184;-68
2021/03/24 04:32:33;;;;;;;24.80;2.53;;;9.40;99.90;;;;;;5044641;28;20221;-69
2021/03/24 04:35:01;;;;;;;13.80;2.10;;;9.60;99.90;;;;;;5037317;28;20256;-70
2021/03/24 04:37:53;;;;;;;19.57;2.73;;;9.70;99.90;;;;;;5039580;28;20191;-70
2021/03/24 04:47:53;;;;;;;9.93;2.87;;;9.80;99.90;;;;;;5045235;28;20195;-69
2021/03/24 04:54:25;;;;;;;13.30;2.60;;;9.70;99.90;;;;;;5040596;28;20628;-69
2021/03/24 04:56:57;;;;;;;10.27;2.40;;;9.70;99.90;;;;;;5038772;28;20188;-69
2021/03/24 05:04:13;;;;;;;16.27;2.40;;;9.90;99.90;;;;;;5037444;28;20211;-70
2021/03/24 05:07:13;;;;;;;18.63;2.77;;;9.90;99.90;;;;;;5041379;28;20206;-69
2021/03/24 05:13:37;;;;;;;17.83;2.33;;;10.10;99.90;;;;;;5040175;28;20187;-69
2021/03/24 05:27:42;;;;;;;8.43;1.97;;;10.20;99.90;;;;;;5041647;28;20216;-71
2021/03/24 05:30:26;;;;;;;13.77;1.97;;;10.10;99.90;;;;;;5055581;28;20187;-69
2021/03/24 05:33:04;;;;;;;15.07;2.77;;;10.10;99.90;;;;;;5040906;28;20813;-70
2021/03/24 05:43:37;;;;;;;13.93;2.37;;;10.20;99.90;;;;;;5032618;28;20192;-69
2021/03/24 05:46:18;;;;;;;13.10;2.30;;;10.20;99.90;;;;;;5046707;28;20215;-68
2021/03/24 05:49:10;;;;;;;24.30;2.70;;;10.20;99.90;;;;;;5042794;28;20218;-69
2021/03/24 05:55:31;;;;;;;8.20;2.23;;;9.80;99.90;;;;;;5037500;28;20183;-70
2021/03/24 05:58:49;;;;;;;8.57;1.23;;;9.50;99.90;;;;;;5044048;28;20195;-67
2021/03/24 06:01:23;;;;;;;4.73;1.70;;;9.40;99.90;;;;;;5018279;28;20192;-70
2021/03/24 06:04:09;;;;;;;9.00;1.90;;;9.40;99.90;;;;;;5028128;28;20183;-70
2021/03/24 06:21:08;;;;;;;7.00;1.40;;;9.80;99.90;;;;;;5031098;28;20590;-68
2021/03/24 06:24:09;;;;;;;7.50;1.93;;;9.60;99.90;;;;;;5019025;28;20866;-71
2021/03/24 06:27:10;;;;;;;6.33;1.53;;;9.60;99.90;;;;;;5025611;28;20202;-68
2021/03/24 06:29:55;;;;;;;15.37;2.77;;;9.60;99.90;;;;;;5036256;28;20750;-71
2021/03/24 06:32:33;;;;;;;8.17;2.10;;;9.80;99.90;;;;;;5015892;28;20212;-70
2021/03/24 06:35:36;;;;;;;13.13;2.60;;;9.90;99.90;;;;;;5033878;28;20185;-70
2021/03/24 06:45:47;;;;;;;24.23;3.47;;;10.10;99.90;;;;;;5017266;28;20201;-69
2021/03/24 06:49:05;;;;;;;17.93;3.47;;;10.20;99.90;;;;;;5034894;28;20256;-70
2021/03/24 06:52:35;;;;;;;8.93;2.77;;;10.20;99.90;;;;;;5039979;28;20196;-68
2021/03/24 06:59:42;;;;;;;12.37;2.60;;;10.30;99.90;;;;;;5029399;28;20203;-70
2021/03/24 07:02:49;;;;;;;18.67;2.57;;;10.50;99.90;;;;;;5025160;28;20238;-70
2021/03/24 07:06:11;;;;;;;14.77;2.73;;;10.50;99.90;;;;;;5034986;28;20846;-70
2021/03/24 07:12:29;;;;;;;15.13;2.80;;;10.70;99.90;;;;;;5025778;28;20298;-69
2021/03/24 07:15:33;;;;;;;14.30;2.10;;;10.80;99.90;;;;;;5027375;28;20211;-70
2021/03/24 07:18:15;;;;;;;12.83;1.80;;;10.80;99.90;;;;;;5030850;28;20188;-70
2021/03/24 07:21:15;;;;;;;11.17;2.00;;;10.70;99.90;;;;;;5017537;28;20513;-70
2021/03/24 07:24:02;;;;;;;9.90;1.70;;;10.70;99.90;;;;;;4999144;28;20943;-70
2021/03/24 07:27:00;;;;;;;12.17;1.97;;;10.70;99.90;;;;;;5013878;28;20271;-69
2021/03/24 07:30:02;;;;;;;5.40;1.50;;;10.60;99.90;;;;;;5013078;28;20211;-69
2021/03/24 07:33:08;;;;;;;6.70;1.80;;;10.40;99.90;;;;;;5015240;28;20231;-70
2021/03/24 07:36:19;;;;;;;7.67;1.93;;;10.10;99.90;;;;;;5013833;28;21630;-70
2021/03/24 07:39:50;;;;;;;6.33;1.80;;;9.80;99.90;;;;;;5023020;28;20204;-70
2021/03/24 08:01:20;;;;;;;16.60;3.00;;;10.20;99.90;;;;;;5000925;28;20196;-70
2021/03/24 08:04:34;;;;;;;9.73;2.67;;;10.30;99.90;;;;;;5008024;28;20988;-70
2021/03/24 08:07:31;;;;;;;23.53;3.40;;;10.40;99.90;;;;;;5004854;28;20197;-70
2021/03/24 08:14:34;;;;;;;15.20;3.23;;;10.50;99.90;;;;;;5019606;28;20712;-70
2021/03/24 08:17:36;;;;;;;23.43;4.73;;;10.50;99.90;;;;;;4986226;28;20852;-71
2021/03/24 08:35:24;;;;;;;28.60;4.00;;;10.80;99.90;;;;;;5007640;28;20177;-71
2021/03/24 08:38:27;;;;;;;19.30;4.70;;;10.70;99.90;;;;;;5015007;28;20293;-70
2021/03/24 09:22:17;;;;;;;12.43;3.00;;;11.60;99.90;;;;;;5006847;28;20263;-69
2021/03/24 09:25:10;;;;;;;13.07;3.03;;;11.60;99.90;;;;;;5004486;28;20837;-69
2021/03/24 09:42:39;;;;;;;14.13;4.70;;;11.90;99.90;;;;;;4995985;28;20216;-68
2021/03/24 09:46:06;;;;;;;11.50;5.30;;;11.80;99.90;;;;;;5006961;28;20279;-68
2021/03/24 09:52:59;;;;;;;16.13;6.00;;;11.70;99.90;;;;;;5016584;28;20577;-70
2021/03/24 10:27:48;;;;;;;40.83;15.03;;;9.90;99.90;;;;;;4619775;30;490819;-67
2021/03/24 10:30:54;;;;;;;26.90;16.30;;;10.30;99.90;;;;;;4501137;30;530843;-67
2021/03/24 10:34:08;;;;;;;32.40;17.30;;;10.40;99.90;;;;;;4304962;32;20239;-66
2021/03/24 10:36:56;;;;;;;34.30;17.37;;;10.60;99.90;;;;;;4241258;33;20259;-65
2021/03/24 10:39:53;;;;;;;31.93;18.53;;;10.80;99.90;;;;;;4224492;33;20231;-67
2021/03/24 10:42:32;;;;;;;21.87;13.47;;;10.90;99.90;;;;;;4238684;33;20870;-66
2021/03/24 10:45:32;;;;;;;23.53;13.13;;;11.00;99.90;;;;;;4212920;33;20228;-67
2021/03/24 10:48:28;;;;;;;28.03;13.93;;;11.10;99.90;;;;;;4241841;33;20244;-68
2021/03/24 10:51:46;;;;;;;28.67;13.27;;;11.30;99.90;;;;;;4243500;33;20225;-68
2021/03/24 10:54:21;;;;;;;15.70;8.63;;;11.40;99.90;;;;;;4280542;33;20602;-67
2021/03/24 10:57:14;;;;;;;19.40;8.30;;;11.40;99.90;;;;;;4276340;33;20267;-67
2021/03/24 11:00:12;;;;;;;27.23;8.87;;;11.50;99.90;;;;;;4236317;33;20220;-67
2021/03/24 11:03:20;;;;;;;18.40;8.50;;;11.50;99.90;;;;;;4253783;33;20224;-67
2021/03/24 11:06:19;;;;;;;20.00;7.30;;;11.50;99.90;;;;;;4253658;33;20739;-66
2021/03/24 11:24:10;;;;;;;18.03;5.20;;;12.40;99.90;;;;;;4226281;33;20218;-67
2021/03/24 11:27:05;;;;;;;22.83;5.60;;;12.70;99.90;;;;;;4245427;33;20235;-68
2021/03/24 11:56:25;;;;;;;17.17;3.30;;;13.00;99.90;;;;;;4380168;32;20242;-68
2021/03/24 11:59:52;;;;;;;23.30;3.37;;;13.20;99.90;;;;;;4375055;32;20229;-69
2021/03/24 12:06:43;;;;;;;14.33;2.93;;;13.40;99.90;;;;;;4361361;32;20576;-68
2021/03/24 12:10:06;;;;;;;12.07;3.00;;;13.40;99.90;;;;;;4357837;32;20218;-70
2021/03/24 12:12:40;;;;;;;13.43;2.50;;;13.40;99.90;;;;;;4357925;32;20414;-67
2021/03/24 12:15:32;;;;;;;15.00;3.00;;;13.30;99.90;;;;;;4356645;32;20356;-67
2021/03/24 12:18:11;;;;;;;11.60;3.13;;;13.40;99.90;;;;;;4379683;32;20306;-68
2021/03/24 12:21:04;;;;;;;18.43;3.00;;;13.50;99.90;;;;;;4357172;32;20317;-65
2021/03/24 12:23:39;;;;;;;9.83;2.60;;;13.50;99.90;;;;;;4357666;32;20308;-68
2021/03/24 12:26:39;;;;;;;14.83;2.83;;;13.50;99.90;;;;;;4361445;32;20267;-68
2021/03/24 12:29:28;;;;;;;15.43;3.10;;;13.40;99.90;;;;;;4393097;32;20219;-69
2021/03/24 12:32:05;;;;;;;9.30;2.97;;;13.40;99.90;;;;;;4568730;30;20279;-68
2021/03/24 12:45:40;;;;;;;16.67;3.37;;;12.80;99.90;;;;;;4663475;30;20193;-68
2021/03/24 12:48:13;;;;;;;15.23;2.97;;;13.00;99.90;;;;;;4666510;30;20201;-68
2021/03/24 12:51:14;;;;;;;18.47;3.40;;;12.90;99.90;;;;;;4672138;30;20201;-70
2021/03/24 12:53:56;;;;;;;12.63;3.17;;;13.00;99.90;;;;;;4672458;30;20231;-67
2021/03/24 12:57:02;;;;;;;13.27;3.20;;;13.10;99.90;;;;;;4672176;30;20328;-69
2021/03/24 12:59:34;;;;;;;20.00;3.03;;;12.90;99.90;;;;;;4682549;30;20200;-67
2021/03/24 13:02:44;;;;;;;14.03;3.20;;;13.00;99.90;;;;;;4666797;30;20197;-68
2021/03/24 13:05:50;;;;;;;15.60;3.23;;;13.10;99.90;;;;;;4678364;30;20212;-67
2021/03/24 13:08:44;;;;;;;14.20;3.33;;;12.70;99.90;;;;;;4663541;30;20213;-66
2021/03/24 13:12:12;;;;;;;12.73;3.60;;;12.60;99.90;;;;;;4678770;30;20692;-66
2021/03/24 13:15:32;;;;;;;12.90;2.97;;;12.90;99.90;;;;;;4648885;30;20623;-68
2021/03/24 13:18:17;;;;;;;22.53;3.67;;;12.90;99.90;;;;;;4669936;30;20312;-68
2021/03/24 13:21:17;;;;;;;14.43;3.43;;;12.90;99.90;;;;;;4683265;30;20301;-69
2021/03/24 13:24:01;;;;;;;16.17;3.37;;;12.50;99.90;;;;;;4668839;30;20193;-67
2021/03/24 13:26:33;;;;;;;19.60;4.07;;;12.50;99.90;;;;;;4670249;30;20280;-67
2021/03/24 13:29:45;;;;;;;13.57;3.63;;;12.60;99.90;;;;;;4633089;30;1017303;-68
2021/03/24 13:32:39;;;;;;;17.17;3.70;;;12.80;99.90;;;;;;4787553;29;20223;-66
2021/03/24 13:35:43;;;;;;;14.77;3.80;;;12.90;99.90;;;;;;4818153;29;20248;-67
2021/03/24 13:38:44;;;;;;;13.33;3.40;;;12.60;99.90;;;;;;4817213;29;20199;-68
2021/03/24 13:41:13;;;;;;;18.33;3.80;;;12.70;99.90;;;;;;4817169;29;20248;-66
2021/03/24 13:44:09;;;;;;;16.80;3.80;;;12.90;99.90;;;;;;4846936;29;20862;-68
2021/03/24 13:46:51;;;;;;;16.00;3.37;;;12.90;99.90;;;;;;4830597;29;20214;-65
2021/03/24 13:50:05;;;;;;;14.70;3.70;;;12.60;99.90;;;;;;4836893;29;20202;-66
2021/03/24 13:53:03;;;;;;;15.43;3.40;;;12.40;99.90;;;;;;4827809;29;20196;-66
2021/03/24 13:55:53;;;;;;;18.87;3.63;;;12.30;99.90;;;;;;4813446;29;20720;-65
2021/03/24 13:58:51;;;;;;;19.60;3.47;;;12.00;99.90;;;;;;4816678;29;20267;-66
2021/03/24 14:01:33;;;;;;;13.63;4.07;;;11.90;99.90;;;;;;4817688;29;20240;-66
2021/03/24 14:04:55;;;;;;;16.03;3.73;;;12.10;99.90;;;;;;4845879;29;20649;-66
2021/03/24 14:07:40;;;;;;;15.60;3.90;;;11.90;99.90;;;;;;4815116;29;20240;-64
2021/03/24 14:10:39;;;;;;;21.23;3.70;;;11.80;99.90;;;;;;4832095;29;20645;-67
2021/03/24 14:13:43;;;;;;;22.00;4.03;;;11.80;99.90;;;;;;4831395;29;20724;-67
2021/03/24 14:16:29;;;;;;;17.87;3.67;;;11.90;99.90;;;;;;4828987;29;20246;-65
2021/03/24 14:19:25;;;;;;;20.37;3.70;;;12.10;99.90;;;;;;4820316;29;20538;-67
2021/03/24 14:22:03;;;;;;;9.50;2.90;;;12.10;99.90;;;;;;4819552;29;20323;-65
2021/03/24 14:24:46;;;;;;;15.50;3.10;;;12.10;99.90;;;;;;4829862;29;20195;-65
2021/03/24 14:27:33;;;;;;;13.67;2.87;;;12.10;99.90;;;;;;4815200;29;20188;-66
2021/03/24 14:30:05;;;;;;;13.43;3.63;;;12.10;99.90;;;;;;4811376;29;20199;-68
2021/03/24 14:33:10;;;;;;;17.63;3.13;;;12.10;99.90;;;;;;4856548;29;20656;-68
2021/03/24 14:36:17;;;;;;;18.43;3.90;;;12.00;99.90;;;;;;4903011;29;20209;-67
2021/03/24 14:39:25;;;;;;;19.00;3.40;;;11.90;99.90;;;;;;4889204;29;20181;-67
2021/03/24 14:42:03;;;;;;;17.83;4.10;;;12.00;99.90;;;;;;4881167;29;20184;-66
2021/03/24 14:45:02;;;;;;;16.70;3.30;;;11.90;99.90;;;;;;4890241;29;20562;-67
2021/03/24 14:47:40;;;;;;;16.57;3.73;;;11.70;99.90;;;;;;4892087;29;20742;-65
2021/03/24 14:50:58;;;;;;;20.63;3.57;;;11.50;99.90;;;;;;4905585;29;20530;-67
2021/03/24 14:53:43;;;;;;;20.80;4.47;;;11.40;99.90;;;;;;4892700;29;20739;-66
2021/03/24 14:56:40;;;;;;;16.37;3.57;;;11.30;99.90;;;;;;4906896;29;20228;-67
2021/03/24 14:59:31;;;;;;;16.87;3.60;;;11.30;99.90;;;;;;4893145;29;20196;-68
2021/03/24 15:02:28;;;;;;;18.80;4.17;;;11.40;99.90;;;;;;4893483;29;20183;-66
2021/03/24 15:05:00;;;;;;;17.80;4.30;;;11.50;99.90;;;;;;4907115;29;20189;-67
2021/03/24 15:07:36;;;;;;;16.83;3.50;;;11.50;99.90;;;;;;4911256;29;20218;-67
2021/03/24 15:10:14;;;;;;;18.03;3.63;;;11.30;99.90;;;;;;4907307;29;20185;-66
2021/03/24 15:13:41;;;;;;;15.00;3.77;;;11.10;99.90;;;;;;4892424;29;20590;-67
2021/03/24 15:16:33;;;;;;;20.30;4.07;;;11.00;99.90;;;;;;4879031;29;20256;-66
2021/03/24 15:19:02;;;;;;;20.57;4.13;;;11.00;99.90;;;;;;4891206;29;20275;-67
2021/03/24 15:21:38;;;;;;;14.50;3.33;;;11.00;99.90;;;;;;4891172;29;20216;-66
2021/03/24 15:24:26;;;;;;;17.43;4.40;;;11.00;99.90;;;;;;4892218;29;20188;-65
2021/03/24 15:27:12;;;;;;;12.00;2.97;;;10.90;99.90;;;;;;4891797;29;20787;-65
2021/03/24 15:30:05;;;;;;;12.80;3.73;;;10.70;99.90;;;;;;4890387;29;20215;-67
2021/03/24 15:33:05;;;;;;;27.10;4.33;;;10.70;99.90;;;;;;4940312;28;20206;-67
2021/03/24 15:36:02;;;;;;;13.77;3.20;;;10.60;99.90;;;;;;4949925;28;20210;-66
2021/03/24 15:38:40;;;;;;;22.60;3.63;;;10.50;99.90;;;;;;4968146;28;20222;-68
2021/03/24 15:41:38;;;;;;;14.83;3.20;;;10.50;99.90;;;;;;4950654;28;20695;-67
2021/03/24 15:44:23;;;;;;;19.67;3.23;;;10.50;99.90;;;;;;4969670;28;20190;-67
2021/03/24 15:46:57;;;;;;;15.90;4.03;;;10.50;99.90;;;;;;4967488;28;20186;-66
2021/03/24 15:50:06;;;;;;;19.03;3.77;;;10.50;99.90;;;;;;4950329;28;20181;-65
2021/03/24 15:52:33;;;;;;;17.60;3.93;;;10.50;99.90;;;;;;4968020;28;20214;-67
2021/03/24 15:55:07;;;;;;;14.57;3.43;;;10.50;99.90;;;;;;4969039;28;20206;-67
2021/03/24 15:58:19;;;;;;;16.27;3.43;;;10.40;99.90;;;;;;4967637;28;20213;-66
2021/03/24 16:01:18;;;;;;;17.87;3.33;;;10.30;99.90;;;;;;4948022;28;20241;-65
2021/03/24 16:03:46;;;;;;;16.10;3.50;;;10.30;99.90;;;;;;4967376;28;20182;-66
2021/03/24 16:06:47;;;;;;;14.80;3.20;;;10.30;99.90;;;;;;4967675;28;20189;-64
2021/03/24 16:09:37;;;;;;;16.93;2.93;;;10.30;99.90;;;;;;4966495;28;20658;-66
2021/03/24 16:12:42;;;;;;;15.17;3.40;;;10.20;99.90;;;;;;4934052;28;20214;-67
2021/03/24 16:15:33;;;;;;;13.37;3.20;;;10.20;99.90;;;;;;4929917;28;20206;-65
2021/03/24 16:18:18;;;;;;;23.30;3.90;;;10.20;99.90;;;;;;4967785;28;20194;-66
2021/03/24 16:21:23;;;;;;;21.77;3.53;;;10.20;99.90;;;;;;4967731;28;20178;-66
2021/03/24 16:24:33;;;;;;;17.23;3.57;;;10.20;99.90;;;;;;4950443;28;20186;-66
2021/03/24 16:27:13;;;;;;;19.63;3.43;;;10.20;99.90;;;;;;4966579;28;20237;-65
2021/03/24 16:29:56;;;;;;;14.20;2.90;;;10.10;99.90;;;;;;4978036;28;20666;-68
2021/03/24 16:33:03;;;;;;;17.10;3.03;;;10.10;99.90;;;;;;4958750;28;20225;-65
2021/03/24 16:36:15;;;;;;;15.10;3.17;;;10.10;99.90;;;;;;4989658;28;20247;-66
2021/03/24 16:39:31;;;;;;;15.50;3.47;;;10.10;99.90;;;;;;4991039;28;20240;-65
2021/03/24 16:42:49;;;;;;;24.00;3.57;;;10.10;99.90;;;;;;4989316;28;20181;-66
2021/03/24 16:45:50;;;;;;;15.60;3.47;;;10.10;99.90;;;;;;4968139;28;20189;-66
2021/03/24 16:48:51;;;;;;;18.73;3.73;;;10.10;99.90;;;;;;4978533;28;20189;-66
2021/03/24 16:51:47;;;;;;;18.63;3.53;;;10.00;99.90;;;;;;4997907;28;20274;-65
2021/03/24 16:54:28;;;;;;;20.80;3.43;;;10.00;99.90;;;;;;4989773;28;20193;-66
2021/03/24 16:57:39;;;;;;;18.90;3.63;;;10.00;99.90;;;;;;4988737;28;20845;-64
2021/03/24 17:00:43;;;;;;;16.80;3.17;;;9.90;99.90;;;;;;4969121;28;20409;-68
2021/03/24 17:03:38;;;;;;;17.80;3.50;;;9.90;99.90;;;;;;4971352;28;20185;-67
2021/03/24 17:06:21;;;;;;;13.83;3.07;;;9.90;99.90;;;;;;4970039;28;20190;-65
2021/03/24 17:09:05;;;;;;;15.70;3.27;;;9.90;99.90;;;;;;4990345;28;20177;-66
2021/03/24 17:11:59;;;;;;;14.47;3.27;;;9.90;99.90;;;;;;4987084;28;20217;-66
2021/03/24 17:14:44;;;;;;;26.50;4.10;;;9.90;99.90;;;;;;4975993;28;20324;-65
2021/03/24 17:17:30;;;;;;;18.27;3.73;;;9.80;99.90;;;;;;4971149;28;20693;-67
2021/03/24 17:20:26;;;;;;;15.70;3.17;;;9.80;99.90;;;;;;4996418;28;20255;-66
2021/03/24 17:23:17;;;;;;;14.17;2.67;;;9.80;99.90;;;;;;4990567;28;20190;-66
2021/03/24 17:25:49;;;;;;;12.03;2.37;;;9.80;99.90;;;;;;4983291;28;20198;-66
2021/03/24 17:28:34;;;;;;;18.77;3.13;;;9.80;99.90;;;;;;4997329;28;20189;-65
2021/03/24 17:31:28;;;;;;;23.90;3.00;;;9.80;99.90;;;;;;4998401;28;20201;-65
2021/03/24 17:34:19;;;;;;;15.97;2.97;;;9.70;99.90;;;;;;5001087;28;20188;-66
2021/03/24 17:37:27;;;;;;;13.73;2.80;;;9.70;99.90;;;;;;5004983;28;20224;-64
2021/03/24 17:40:51;;;;;;;10.97;3.00;;;9.80;99.90;;;;;;4972912;28;20187;-67
2021/03/24 17:44:04;;;;;;;16.20;3.30;;;9.80;99.90;;;;;;4989212;28;20684;-66
2021/03/24 17:46:51;;;;;;;14.70;2.90;;;9.80;99.90;;;;;;5003370;28;20188;-66
2021/03/24 17:49:40;;;;;;;14.63;3.87;;;9.80;99.90;;;;;;5005526;28;20200;-66
2021/03/24 17:52:29;;;;;;;16.00;2.90;;;9.70;99.90;;;;;;5003293;28;20224;-66
2021/03/24 17:55:39;;;;;;;26.80;3.13;;;9.70;99.90;;;;;;5000322;28;20208;-65
2021/03/24 17:58:46;;;;;;;14.20;2.70;;;9.70;99.90;;;;;;5005528;28;20791;-67
2021/03/24 18:02:10;;;;;;;13.07;2.63;;;9.70;99.90;;;;;;5003624;28;20180;-65
2021/03/24 18:05:11;;;;;;;15.70;2.90;;;9.70;99.90;;;;;;4983917;28;20231;-66
2021/03/24 18:07:43;;;;;;;12.40;2.67;;;9.70;99.90;;;;;;5003695;28;20322;-65
2021/03/24 18:10:23;;;;;;;13.00;2.80;;;9.70;99.90;;;;;;5003989;28;20267;-67
2021/03/24 18:12:59;;;;;;;13.93;2.63;;;9.70;99.90;;;;;;5004797;28;20231;-66
2021/03/24 18:15:44;;;;;;;14.10;3.03;;;9.70;99.90;;;;;;4986560;28;20681;-66
2021/03/24 18:18:13;;;;;;;15.67;2.97;;;9.60;99.90;;;;;;5006089;28;20185;-66
2021/03/24 18:20:44;;;;;;;13.30;3.20;;;9.60;99.90;;;;;;5002752;28;20219;-65
2021/03/24 18:23:20;;;;;;;12.07;2.70;;;9.60;99.90;;;;;;5007488;28;20212;-66
2021/03/24 18:26:18;;;;;;;14.60;2.83;;;9.60;99.90;;;;;;5000362;28;20238;-67
2021/03/24 18:28:54;;;;;;;17.10;3.20;;;9.50;99.90;;;;;;5006491;28;20224;-66
2021/03/24 18:31:52;;;;;;;14.90;2.57;;;9.60;99.90;;;;;;5007404;28;20247;-66
2021/03/24 18:34:29;;;;;;;16.43;3.00;;;9.60;99.90;;;;;;5005758;28;20197;-66
2021/03/24 18:37:12;;;;;;;11.27;2.63;;;9.50;99.90;;;;;;5008132;28;20623;-67
2021/03/24 18:39:46;;;;;;;16.37;2.80;;;9.50;99.90;;;;;;5006256;28;20184;-66
2021/03/24 18:42:22;;;;;;;16.07;2.40;;;9.50;99.90;;;;;;5007080;28;20219;-66
2021/03/24 18:44:58;;;;;;;12.00;1.97;;;9.50;99.90;;;;;;5005479;28;20196;-67
2021/03/24 18:47:33;;;;;;;8.13;2.30;;;9.50;99.90;;;;;;5004182;28;20243;-66
2021/03/24 18:50:08;;;;;;;14.70;2.90;;;9.50;99.90;;;;;;5002013;28;20181;-65
2021/03/24 18:52:45;;;;;;;11.67;2.60;;;9.50;99.90;;;;;;5003405;28;20212;-67
2021/03/24 18:55:36;;;;;;;12.27;2.77;;;9.50;99.90;;;;;;5009404;28;20204;-66
2021/03/24 18:58:28;;;;;;;11.73;2.43;;;9.50;99.90;;;;;;5006752;28;20643;-64
2021/03/24 19:01:04;;;;;;;19.10;2.90;;;9.50;99.90;;;;;;5005817;28;20677;-65
2021/03/24 19:03:37;;;;;;;14.10;3.07;;;9.60;99.90;;;;;;5007253;28;20189;-66
2021/03/24 19:06:15;;;;;;;25.27;3.77;;;9.50;99.90;;;;;;5006767;28;20177;-66
2021/03/24 19:08:56;;;;;;;16.93;2.80;;;9.50;99.90;;;;;;5005162;28;20319;-66
2021/03/24 19:11:31;;;;;;;18.83;3.53;;;9.60;99.90;;;;;;5005356;28;20216;-66
2021/03/24 19:14:00;;;;;;;12.07;3.70;;;9.60;99.90;;;;;;5008670;28;20181;-64
2021/03/24 19:16:56;;;;;;;15.53;2.73;;;9.50;99.90;;;;;;5021470;28;20205;-66
2021/03/24 19:19:24;;;;;;;13.27;2.50;;;9.50;99.90;;;;;;4990114;28;21003;-67
2021/03/24 19:21:59;;;;;;;13.60;2.80;;;9.40;99.90;;;;;;5003524;28;20589;-64
2021/03/24 19:24:39;;;;;;;24.63;3.60;;;9.50;99.90;;;;;;5004757;28;20197;-66
2021/03/24 19:27:18;;;;;;;18.97;3.37;;;9.40;99.90;;;;;;5005230;28;20190;-67
2021/03/24 19:29:58;;;;;;;13.87;2.63;;;9.40;99.90;;;;;;4998936;28;20190;-65
2021/03/24 19:32:41;;;;;;;16.20;2.77;;;9.40;99.90;;;;;;5003293;28;20188;-65
2021/03/24 19:35:34;;;;;;;7.00;2.20;;;9.40;99.90;;;;;;5005348;28;20212;-66
2021/03/24 19:38:35;;;;;;;12.07;2.50;;;9.40;99.90;;;;;;5002181;28;20177;-65
2021/03/24 19:41:11;;;;;;;12.73;2.67;;;9.30;99.90;;;;;;5002699;28;20216;-66
2021/03/24 19:43:44;;;;;;;11.40;2.57;;;9.40;99.90;;;;;;5006092;28;20207;-65
2021/03/24 19:46:38;;;;;;;18.20;3.07;;;9.40;99.90;;;;;;4995868;28;20283;-65
2021/03/24 19:49:28;;;;;;;15.80;2.63;;;9.40;99.90;;;;;;4998547;28;20220;-66
2021/03/24 19:52:08;;;;;;;11.57;2.50;;;9.40;99.90;;;;;;5000247;28;20672;-67
2021/03/24 19:54:47;;;;;;;8.87;2.60;;;9.40;99.90;;;;;;5007895;28;20271;-65
2021/03/24 19:57:39;;;;;;;10.67;2.40;;;9.40;99.90;;;;;;5002968;28;20220;-66
2021/03/24 20:00:41;;;;;;;16.83;2.57;;;9.40;99.90;;;;;;5002590;28;22142;-67
2021/03/24 20:03:39;;;;;;;7.50;2.33;;;9.30;99.90;;;;;;5000629;28;21034;-65
2021/03/24 20:06:28;;;;;;;11.47;2.43;;;9.40;99.90;;;;;;4995606;28;20275;-68
2021/03/24 20:09:18;;;;;;;9.40;2.30;;;9.40;99.90;;;;;;5004414;28;20189;-65
2021/03/24 20:12:32;;;;;;;9.43;2.57;;;9.40;99.90;;;;;;5007126;28;20184;-65
2021/03/24 20:15:17;;;;;;;14.87;2.67;;;9.40;99.90;;;;;;4960095;28;20505;-65
2021/03/24 20:17:48;;;;;;;13.13;2.70;;;9.40;99.90;;;;;;5003816;28;20185;-65
2021/03/24 20:20:30;;;;;;;9.10;2.40;;;9.40;99.90;;;;;;5021254;28;20201;-66
2021/03/24 20:23:03;;;;;;;9.23;2.30;;;9.30;99.90;;;;;;4986166;28;20320;-65
2021/03/24 20:25:35;;;;;;;13.03;2.43;;;9.30;99.90;;;;;;5016822;28;20200;-65
2021/03/24 20:28:06;;;;;;;12.77;2.53;;;9.40;99.90;;;;;;5003572;28;20193;-66
2021/03/24 20:30:37;;;;;;;11.23;2.73;;;9.40;99.90;;;;;;5002902;28;20343;-68
2021/03/24 20:33:32;;;;;;;13.37;2.57;;;9.40;99.90;;;;;;5004179;28;20219;-65
2021/03/24 20:36:17;;;;;;;13.30;3.00;;;9.40;99.90;;;;;;5007772;28;20240;-67
2021/03/24 20:38:54;;;;;;;13.20;2.77;;;9.40;99.90;;;;;;5018149;28;20193;-66
2021/03/24 20:41:42;;;;;;;13.10;2.93;;;9.30;99.90;;;;;;5005004;28;20522;-68
2021/03/24 20:44:30;;;;;;;9.63;2.87;;;9.30;99.90;;;;;;5003897;28;20189;-66
2021/03/24 20:46:58;;;;;;;12.67;2.67;;;9.20;99.90;;;;;;4996307;28;20762;-65
2021/03/24 20:49:40;;;;;;;11.37;2.73;;;9.20;99.90;;;;;;5001174;28;20713;-65
2021/03/24 20:52:07;;;;;;;10.80;2.73;;;9.20;99.90;;;;;;5005930;28;20188;-66
2021/03/24 20:54:35;;;;;;;17.63;3.43;;;9.30;99.90;;;;;;5002555;28;20491;-66
2021/03/24 20:57:05;;;;;;;17.83;3.27;;;9.30;99.90;;;;;;5004924;28;20219;-66
2021/03/24 20:59:32;;;;;;;15.50;3.23;;;9.40;99.90;;;;;;5017948;28;20185;-66
2021/03/24 21:01:59;;;;;;;10.00;2.90;;;9.40;99.90;;;;;;5004426;28;20200;-66
2021/03/24 21:04:26;;;;;;;9.67;2.57;;;9.40;99.90;;;;;;5000784;28;20220;-68
2021/03/24 21:06:55;;;;;;;13.97;2.93;;;9.40;99.90;;;;;;5001112;28;20209;-67